Time,TemperatureF,DewpointF,PressureIn,WindDirection,WindDirectionDegrees,WindSpeedMPH,WindSpeedGustMPH,Humidity,HourlyPrecipIn,Conditions,Clouds,dailyrainin,SolarRadiationWatts/m^2,SoftwareType,DateUTC
2013-02-18 00:00:00,24.1,21.6,30.27,ENE,65,0.0,2.0,90,0.00,,,0.01,0,Wunderground v.1.15,2013-02-18 05:00:00,
2013-02-18 00:30:00,23.2,21.0,30.28,ENE,65,0.0,2.0,91,0.00,,,0.00,0,Wunderground v.1.15,2013-02-18 05:30:00,
2013-02-18 01:00:00,23.3,21.3,30.30,East,90,1.0,1.0,92,0.00,,,0.00,0,Wunderground v.1.15,2013-02-18 06:00:00,
2013-02-18 01:30:00,23.3,21.3,30.31,East,90,0.0,2.0,92,0.00,,,0.00,0,Wunderground v.1.15,2013-02-18 06:30:00,
2013-02-18 02:00:00,22.8,20.8,30.31,East,90,0.0,2.0,92,0.00,,,0.00,0,Wunderground v.1.15,2013-02-18 07:00:00,
2013-02-18 02:30:00,22.3,20.3,30.31,East,91,0.0,2.0,92,0.00,,,0.00,0,Wunderground v.1.15,2013-02-18 07:30:00,
2013-02-18 03:00:00,21.7,19.7,30.31,East,90,0.0,2.0,92,0.00,,,0.00,0,Wunderground v.1.15,2013-02-18 08:00:00,
2013-02-18 03:30:00,21.0,19.0,30.32,East,90,0.0,2.0,92,0.00,,,0.00,0,Wunderground v.1.15,2013-02-18 08:30:00,
2013-02-18 04:00:00,20.4,18.4,30.32,East,90,0.0,2.0,92,0.00,,,0.00,0,Wunderground v.1.15,2013-02-18 09:00:00,
2013-02-18 04:30:00,19.8,18.1,30.33,East,90,0.0,2.0,93,0.00,,,0.00,0,Wunderground v.1.15,2013-02-18 09:30:00,
2013-02-18 05:00:00,19.7,18.0,30.34,East,90,0.0,2.0,93,0.00,,,0.00,0,Wunderground v.1.15,2013-02-18 10:00:00,
2013-02-18 05:30:00,19.9,18.2,30.34,East,90,0.0,2.0,93,0.00,,,0.00,0,Wunderground v.1.15,2013-02-18 10:30:00,
2013-02-18 06:00:00,19.1,17.2,30.36,East,90,0.0,2.0,92,0.00,,,0.00,0,Wunderground v.1.15,2013-02-18 11:00:00,
2013-02-18 06:30:00,18.4,16.5,30.36,East,90,0.0,2.0,92,0.00,,,0.00,0,Wunderground v.1.15,2013-02-18 11:30:00,
2013-02-18 07:00:00,18.0,16.1,30.38,East,90,0.0,2.0,92,0.00,,,0.00,7,Wunderground v.1.15,2013-02-18 12:00:00,
2013-02-18 07:30:00,19.5,17.8,30.39,East,90,0.0,2.0,93,0.00,,,0.00,21,Wunderground v.1.15,2013-02-18 12:30:00,
2013-02-18 08:00:00,22.7,21.2,30.41,East,91,0.0,2.0,94,0.00,,,0.00,134,Wunderground v.1.15,2013-02-18 13:00:00,
2013-02-18 08:30:00,27.9,25.9,30.42,East,90,0.0,2.0,92,0.00,,,0.00,165,Wunderground v.1.15,2013-02-18 13:30:00,
2013-02-18 09:00:00,33.9,25.1,30.43,WSW,257,1.0,2.0,70,0.00,,,0.00,380,Wunderground v.1.15,2013-02-18 14:00:00,
2013-02-18 09:30:00,37.9,22.7,30.43,SW,230,1.0,1.0,54,0.00,,,0.00,485,Wunderground v.1.15,2013-02-18 14:30:00,
2013-02-18 10:00:00,40.6,20.9,30.43,SW,233,1.0,2.0,45,0.00,,,0.00,563,Wunderground v.1.15,2013-02-18 15:00:00,
2013-02-18 10:30:00,42.8,19.5,30.43,West,280,1.0,3.0,39,0.00,,,0.00,629,Wunderground v.1.15,2013-02-18 15:30:00,
2013-02-18 11:00:00,45.3,19.9,30.43,NE,53,1.0,2.0,36,0.00,,,0.00,680,Wunderground v.1.15,2013-02-18 16:00:00,
2013-02-18 11:30:00,46.0,19.8,30.42,WSW,240,2.0,2.0,35,0.00,,,0.00,722,Wunderground v.1.15,2013-02-18 16:30:00,
2013-02-18 12:00:00,47.3,22.3,30.41,NNW,328,2.0,2.0,37,0.00,,,0.00,745,Wunderground v.1.15,2013-02-18 17:00:00,
2013-02-18 12:30:00,49.7,17.9,30.40,ESE,108,3.0,3.0,28,0.00,,,0.00,751,Wunderground v.1.15,2013-02-18 17:30:00,
2013-02-18 13:00:00,50.7,18.7,30.38,WNW,290,2.0,2.0,28,0.00,,,0.00,738,Wunderground v.1.15,2013-02-18 18:00:00,
2013-02-18 13:30:00,51.4,17.6,30.36,SW,215,2.0,2.0,26,0.00,,,0.00,719,Wunderground v.1.15,2013-02-18 18:30:00,
2013-02-18 14:00:00,52.1,16.4,30.34,SE,127,2.0,2.0,24,0.00,,,0.00,675,Wunderground v.1.15,2013-02-18 19:00:00,
2013-02-18 14:30:00,53.9,20.6,30.33,NE,37,2.0,2.0,27,0.00,,,0.00,621,Wunderground v.1.15,2013-02-18 19:30:00,
2013-02-18 15:00:00,54.8,17.7,30.33,NNE,28,3.0,3.0,23,0.00,,,0.00,568,Wunderground v.1.15,2013-02-18 20:00:00,
2013-02-18 15:30:00,53.2,27.6,30.33,WSW,256,4.0,4.0,37,0.00,,,0.00,475,Wunderground v.1.15,2013-02-18 20:30:00,
2013-02-18 16:00:00,50.7,27.8,30.34,WSW,248,5.0,5.0,41,0.00,,,0.00,353,Wunderground v.1.15,2013-02-18 21:00:00,
2013-02-18 16:30:00,48.2,27.3,30.34,NNW,327,7.0,7.0,44,0.00,,,0.00,237,Wunderground v.1.15,2013-02-18 21:30:00,
2013-02-18 17:00:00,47.1,28.9,30.34,West,261,5.0,6.0,49,0.00,,,0.00,39,Wunderground v.1.15,2013-02-18 22:00:00,
2013-02-18 17:30:00,45.4,27.8,30.35,WNW,283,4.0,4.0,50,0.00,,,0.00,21,Wunderground v.1.15,2013-02-18 22:30:00,
2013-02-18 18:00:00,42.9,28.7,30.35,WNW,299,2.0,2.0,57,0.00,,,0.00,0,Wunderground v.1.15,2013-02-18 23:00:00,
2013-02-18 18:30:00,38.7,28.7,30.35,NW,306,1.0,1.0,67,0.00,,,0.00,0,Wunderground v.1.15,2013-02-18 23:30:00,
2013-02-18 19:00:00,35.5,28.0,30.35,NW,306,0.0,2.0,74,0.00,,,0.00,0,Wunderground v.1.15,2013-02-19 00:00:00,
2013-02-18 19:30:00,33.4,27.6,30.35,NW,306,0.0,2.0,79,0.00,,,0.00,0,Wunderground v.1.15,2013-02-19 00:30:00,
2013-02-18 20:00:00,31.9,27.0,30.35,NW,306,0.0,2.0,82,0.00,,,0.00,0,Wunderground v.1.15,2013-02-19 01:00:00,
2013-02-18 20:30:00,30.6,26.3,30.35,NW,306,0.0,2.0,84,0.00,,,0.00,0,Wunderground v.1.15,2013-02-19 01:30:00,
2013-02-18 21:00:00,29.9,26.2,30.34,NW,306,0.0,2.0,86,0.00,,,0.00,0,Wunderground v.1.15,2013-02-19 02:00:00,
2013-02-18 22:00:00,28.9,26.3,30.32,NW,306,0.0,2.0,90,0.00,,,0.00,0,Wunderground v.1.15,2013-02-19 03:00:00,
2013-02-18 22:30:00,28.5,26.2,30.31,NW,306,0.0,2.0,91,0.00,,,0.00,0,Wunderground v.1.15,2013-02-19 03:30:00,
2013-02-18 23:00:00,28.3,26.3,30.30,NW,306,0.0,2.0,92,0.00,,,0.00,0,Wunderground v.1.15,2013-02-19 04:00:00,
2013-02-18 23:30:00,27.8,25.8,30.28,NW,306,0.0,2.0,92,0.00,,,0.00,0,Wunderground v.1.15,2013-02-19 04:30:00,